sensor_id;sensor_type;location;lat;lon;timestamp;P1;durP1;ratioP1;P2;durP2;ratioP2
26038;SDS011;13815;52.374;4.882;2022-07-17T00:00:39;31.70;;;23.48;;
26038;SDS011;13815;52.374;4.882;2022-07-17T00:03:10;30.50;;;23.02;;
26038;SDS011;13815;52.374;4.882;2022-07-17T00:05:36;30.33;;;22.77;;
26038;SDS011;13815;52.374;4.882;2022-07-17T00:08:02;30.85;;;23.08;;
26038;SDS011;13815;52.374;4.882;2022-07-17T00:10:28;30.20;;;23.02;;
26038;SDS011;13815;52.374;4.882;2022-07-17T00:12:54;31.27;;;23.33;;
26038;SDS011;13815;52.374;4.882;2022-07-17T00:15:19;30.73;;;23.15;;
26038;SDS011;13815;52.374;4.882;2022-07-17T00:17:44;30.95;;;23.17;;
26038;SDS011;13815;52.374;4.882;2022-07-17T00:20:10;31.40;;;23.25;;
26038;SDS011;13815;52.374;4.882;2022-07-17T00:22:36;30.92;;;23.17;;
26038;SDS011;13815;52.374;4.882;2022-07-17T00:25:01;30.77;;;22.88;;
26038;SDS011;13815;52.374;4.882;2022-07-17T00:27:27;32.38;;;23.40;;
26038;SDS011;13815;52.374;4.882;2022-07-17T00:29:59;30.65;;;23.20;;
26038;SDS011;13815;52.374;4.882;2022-07-17T00:32:25;31.10;;;23.35;;
26038;SDS011;13815;52.374;4.882;2022-07-17T00:34:51;31.60;;;24.02;;
26038;SDS011;13815;52.374;4.882;2022-07-17T00:37:16;31.63;;;24.10;;
26038;SDS011;13815;52.374;4.882;2022-07-17T00:39:42;31.13;;;24.08;;
26038;SDS011;13815;52.374;4.882;2022-07-17T00:42:11;30.50;;;24.17;;
26038;SDS011;13815;52.374;4.882;2022-07-17T00:44:37;30.65;;;24.05;;
26038;SDS011;13815;52.374;4.882;2022-07-17T00:47:09;30.35;;;24.17;;
26038;SDS011;13815;52.374;4.882;2022-07-17T00:49:36;30.30;;;24.25;;
26038;SDS011;13815;52.374;4.882;2022-07-17T00:52:02;30.17;;;24.02;;
26038;SDS011;13815;52.374;4.882;2022-07-17T00:54:27;30.77;;;23.77;;
26038;SDS011;13815;52.374;4.882;2022-07-17T00:56:54;30.23;;;23.65;;
26038;SDS011;13815;52.374;4.882;2022-07-17T00:59:21;30.20;;;23.90;;
26038;SDS011;13815;52.374;4.882;2022-07-17T01:01:47;30.42;;;23.83;;
26038;SDS011;13815;52.374;4.882;2022-07-17T01:04:13;30.02;;;23.80;;
26038;SDS011;13815;52.374;4.882;2022-07-17T01:06:38;30.42;;;24.00;;
26038;SDS011;13815;52.374;4.882;2022-07-17T01:09:03;29.27;;;23.70;;
26038;SDS011;13815;52.374;4.882;2022-07-17T01:11:29;30.02;;;23.58;;
26038;SDS011;13815;52.374;4.882;2022-07-17T01:13:54;31.40;;;23.85;;
26038;SDS011;13815;52.374;4.882;2022-07-17T01:16:20;29.65;;;23.90;;
26038;SDS011;13815;52.374;4.882;2022-07-17T01:18:45;29.95;;;23.83;;
26038;SDS011;13815;52.374;4.882;2022-07-17T01:21:11;31.13;;;24.20;;
26038;SDS011;13815;52.374;4.882;2022-07-17T01:23:36;29.25;;;23.48;;
26038;SDS011;13815;52.374;4.882;2022-07-17T01:26:01;29.02;;;23.23;;
26038;SDS011;13815;52.374;4.882;2022-07-17T01:28:27;30.42;;;23.85;;
26038;SDS011;13815;52.374;4.882;2022-07-17T01:30:52;30.10;;;24.17;;
26038;SDS011;13815;52.374;4.882;2022-07-17T01:33:18;30.48;;;24.17;;
26038;SDS011;13815;52.374;4.882;2022-07-17T01:35:44;32.00;;;24.60;;
26038;SDS011;13815;52.374;4.882;2022-07-17T01:38:09;30.52;;;24.17;;
26038;SDS011;13815;52.374;4.882;2022-07-17T01:40:35;30.33;;;23.95;;
26038;SDS011;13815;52.374;4.882;2022-07-17T01:43:00;30.27;;;23.63;;
26038;SDS011;13815;52.374;4.882;2022-07-17T01:45:26;30.70;;;24.13;;
26038;SDS011;13815;52.374;4.882;2022-07-17T01:47:51;30.23;;;23.95;;
26038;SDS011;13815;52.374;4.882;2022-07-17T01:50:17;30.38;;;23.50;;
26038;SDS011;13815;52.374;4.882;2022-07-17T01:52:43;29.65;;;23.40;;
26038;SDS011;13815;52.374;4.882;2022-07-17T01:55:10;29.45;;;23.58;;
26038;SDS011;13815;52.374;4.882;2022-07-17T01:57:36;29.27;;;23.33;;
26038;SDS011;13815;52.374;4.882;2022-07-17T02:00:05;29.60;;;23.70;;
26038;SDS011;13815;52.374;4.882;2022-07-17T02:02:33;32.22;;;24.30;;
26038;SDS011;13815;52.374;4.882;2022-07-17T02:04:58;30.40;;;24.27;;
26038;SDS011;13815;52.374;4.882;2022-07-17T02:07:24;30.88;;;24.10;;
26038;SDS011;13815;52.374;4.882;2022-07-17T02:09:49;32.35;;;24.70;;
26038;SDS011;13815;52.374;4.882;2022-07-17T02:12:15;30.00;;;24.23;;
26038;SDS011;13815;52.374;4.882;2022-07-17T02:14:40;31.35;;;24.65;;
26038;SDS011;13815;52.374;4.882;2022-07-17T02:17:05;31.45;;;24.52;;
26038;SDS011;13815;52.374;4.882;2022-07-17T02:19:31;29.35;;;24.08;;
26038;SDS011;13815;52.374;4.882;2022-07-17T02:21:56;29.73;;;23.85;;
26038;SDS011;13815;52.374;4.882;2022-07-17T02:24:22;29.98;;;23.75;;
26038;SDS011;13815;52.374;4.882;2022-07-17T02:26:47;29.55;;;23.48;;
26038;SDS011;13815;52.374;4.882;2022-07-17T02:29:12;29.63;;;23.58;;
26038;SDS011;13815;52.374;4.882;2022-07-17T02:31:38;29.23;;;23.58;;
26038;SDS011;13815;52.374;4.882;2022-07-17T02:34:03;29.60;;;23.75;;
26038;SDS011;13815;52.374;4.882;2022-07-17T02:36:29;29.88;;;23.98;;
26038;SDS011;13815;52.374;4.882;2022-07-17T02:38:54;29.50;;;23.83;;
26038;SDS011;13815;52.374;4.882;2022-07-17T02:41:20;29.50;;;23.95;;
26038;SDS011;13815;52.374;4.882;2022-07-17T02:43:45;29.73;;;23.27;;
26038;SDS011;13815;52.374;4.882;2022-07-17T02:46:10;28.77;;;23.70;;
26038;SDS011;13815;52.374;4.882;2022-07-17T02:48:38;29.88;;;23.75;;
26038;SDS011;13815;52.374;4.882;2022-07-17T02:51:04;31.13;;;23.73;;
26038;SDS011;13815;52.374;4.882;2022-07-17T02:53:29;29.45;;;23.50;;
26038;SDS011;13815;52.374;4.882;2022-07-17T02:55:54;29.73;;;23.58;;
26038;SDS011;13815;52.374;4.882;2022-07-17T02:58:20;29.13;;;23.30;;
26038;SDS011;13815;52.374;4.882;2022-07-17T03:00:45;28.90;;;23.33;;
26038;SDS011;13815;52.374;4.882;2022-07-17T03:03:10;28.92;;;23.35;;
26038;SDS011;13815;52.374;4.882;2022-07-17T03:05:36;29.55;;;23.20;;
26038;SDS011;13815;52.374;4.882;2022-07-17T03:08:01;29.42;;;23.27;;
26038;SDS011;13815;52.374;4.882;2022-07-17T03:10:27;29.25;;;22.88;;
26038;SDS011;13815;52.374;4.882;2022-07-17T03:12:52;30.00;;;23.02;;
26038;SDS011;13815;52.374;4.882;2022-07-17T03:15:17;28.10;;;22.63;;
26038;SDS011;13815;52.374;4.882;2022-07-17T03:17:43;29.85;;;22.75;;
26038;SDS011;13815;52.374;4.882;2022-07-17T03:20:09;30.40;;;23.33;;
26038;SDS011;13815;52.374;4.882;2022-07-17T03:22:35;29.27;;;23.40;;
26038;SDS011;13815;52.374;4.882;2022-07-17T03:25:03;29.02;;;22.98;;
26038;SDS011;13815;52.374;4.882;2022-07-17T03:27:29;29.60;;;23.10;;
26038;SDS011;13815;52.374;4.882;2022-07-17T03:29:55;28.75;;;22.95;;
26038;SDS011;13815;52.374;4.882;2022-07-17T03:32:21;28.90;;;22.90;;
26038;SDS011;13815;52.374;4.882;2022-07-17T03:34:46;27.60;;;22.00;;
26038;SDS011;13815;52.374;4.882;2022-07-17T03:37:12;27.25;;;22.27;;
26038;SDS011;13815;52.374;4.882;2022-07-17T03:39:37;26.92;;;22.20;;
26038;SDS011;13815;52.374;4.882;2022-07-17T03:42:03;25.65;;;21.70;;
26038;SDS011;13815;52.374;4.882;2022-07-17T03:44:28;26.08;;;21.83;;
26038;SDS011;13815;52.374;4.882;2022-07-17T03:46:54;26.88;;;21.75;;
26038;SDS011;13815;52.374;4.882;2022-07-17T03:49:19;25.00;;;21.15;;
26038;SDS011;13815;52.374;4.882;2022-07-17T03:51:45;28.05;;;21.70;;
26038;SDS011;13815;52.374;4.882;2022-07-17T03:54:10;28.58;;;22.00;;
26038;SDS011;13815;52.374;4.882;2022-07-17T03:56:35;25.35;;;21.67;;
26038;SDS011;13815;52.374;4.882;2022-07-17T03:59:01;26.80;;;21.73;;
26038;SDS011;13815;52.374;4.882;2022-07-17T04:01:26;25.95;;;21.60;;
26038;SDS011;13815;52.374;4.882;2022-07-17T04:03:52;25.80;;;21.88;;
26038;SDS011;13815;52.374;4.882;2022-07-17T04:06:17;26.35;;;21.60;;
26038;SDS011;13815;52.374;4.882;2022-07-17T04:08:42;24.75;;;21.27;;
26038;SDS011;13815;52.374;4.882;2022-07-17T04:11:08;25.20;;;21.73;;
26038;SDS011;13815;52.374;4.882;2022-07-17T04:13:33;27.05;;;22.15;;
26038;SDS011;13815;52.374;4.882;2022-07-17T04:15:59;27.00;;;21.90;;
26038;SDS011;13815;52.374;4.882;2022-07-17T04:18:28;24.48;;;21.45;;
26038;SDS011;13815;52.374;4.882;2022-07-17T04:21:02;29.30;;;22.40;;
26038;SDS011;13815;52.374;4.882;2022-07-17T04:23:29;24.20;;;21.38;;
26038;SDS011;13815;52.374;4.882;2022-07-17T04:25:55;23.98;;;20.98;;
26038;SDS011;13815;52.374;4.882;2022-07-17T04:28:21;26.20;;;21.10;;
26038;SDS011;13815;52.374;4.882;2022-07-17T04:30:46;23.90;;;20.80;;
26038;SDS011;13815;52.374;4.882;2022-07-17T04:33:12;25.55;;;21.13;;
26038;SDS011;13815;52.374;4.882;2022-07-17T04:35:38;27.52;;;21.50;;
26038;SDS011;13815;52.374;4.882;2022-07-17T04:38:04;24.70;;;21.27;;
26038;SDS011;13815;52.374;4.882;2022-07-17T04:40:31;26.42;;;21.50;;
26038;SDS011;13815;52.374;4.882;2022-07-17T04:42:56;28.65;;;21.95;;
26038;SDS011;13815;52.374;4.882;2022-07-17T04:45:22;25.80;;;21.85;;
26038;SDS011;13815;52.374;4.882;2022-07-17T04:47:47;25.85;;;21.95;;
26038;SDS011;13815;52.374;4.882;2022-07-17T04:50:13;29.83;;;22.83;;
26038;SDS011;13815;52.374;4.882;2022-07-17T04:52:38;26.80;;;22.55;;
26038;SDS011;13815;52.374;4.882;2022-07-17T04:55:04;26.17;;;22.23;;
26038;SDS011;13815;52.374;4.882;2022-07-17T04:57:30;26.75;;;22.33;;
26038;SDS011;13815;52.374;4.882;2022-07-17T04:59:55;26.65;;;22.02;;
26038;SDS011;13815;52.374;4.882;2022-07-17T05:02:21;28.33;;;22.60;;
26038;SDS011;13815;52.374;4.882;2022-07-17T05:04:46;26.88;;;22.42;;
26038;SDS011;13815;52.374;4.882;2022-07-17T05:07:12;26.80;;;22.52;;
26038;SDS011;13815;52.374;4.882;2022-07-17T05:09:37;29.95;;;23.38;;
26038;SDS011;13815;52.374;4.882;2022-07-17T05:12:03;26.98;;;21.88;;
26038;SDS011;13815;52.374;4.882;2022-07-17T05:14:29;28.33;;;22.50;;
26038;SDS011;13815;52.374;4.882;2022-07-17T05:16:54;29.00;;;22.20;;
26038;SDS011;13815;52.374;4.882;2022-07-17T05:19:19;26.80;;;21.70;;
26038;SDS011;13815;52.374;4.882;2022-07-17T05:21:48;27.52;;;21.73;;
26038;SDS011;13815;52.374;4.882;2022-07-17T05:24:14;28.50;;;22.08;;
26038;SDS011;13815;52.374;4.882;2022-07-17T05:26:39;27.10;;;21.88;;
26038;SDS011;13815;52.374;4.882;2022-07-17T05:29:05;28.38;;;22.30;;
26038;SDS011;13815;52.374;4.882;2022-07-17T05:31:30;30.60;;;22.30;;
26038;SDS011;13815;52.374;4.882;2022-07-17T05:33:56;26.50;;;21.80;;
26038;SDS011;13815;52.374;4.882;2022-07-17T05:36:21;26.95;;;21.45;;
26038;SDS011;13815;52.374;4.882;2022-07-17T05:38:46;27.80;;;21.73;;
26038;SDS011;13815;52.374;4.882;2022-07-17T05:41:12;27.65;;;22.85;;
26038;SDS011;13815;52.374;4.882;2022-07-17T05:43:37;27.05;;;22.10;;
26038;SDS011;13815;52.374;4.882;2022-07-17T05:46:03;27.67;;;22.70;;
26038;SDS011;13815;52.374;4.882;2022-07-17T05:48:30;27.33;;;22.45;;
26038;SDS011;13815;52.374;4.882;2022-07-17T05:50:56;28.40;;;22.83;;
26038;SDS011;13815;52.374;4.882;2022-07-17T05:53:21;29.63;;;23.02;;
26038;SDS011;13815;52.374;4.882;2022-07-17T05:55:47;29.17;;;23.20;;
26038;SDS011;13815;52.374;4.882;2022-07-17T05:58:12;29.83;;;22.98;;
26038;SDS011;13815;52.374;4.882;2022-07-17T06:00:38;27.83;;;22.50;;
26038;SDS011;13815;52.374;4.882;2022-07-17T06:03:03;28.20;;;22.10;;
26038;SDS011;13815;52.374;4.882;2022-07-17T06:05:29;30.10;;;22.67;;
26038;SDS011;13815;52.374;4.882;2022-07-17T06:07:54;27.58;;;22.40;;
26038;SDS011;13815;52.374;4.882;2022-07-17T06:10:21;29.20;;;22.70;;
26038;SDS011;13815;52.374;4.882;2022-07-17T06:12:47;27.60;;;21.67;;
26038;SDS011;13815;52.374;4.882;2022-07-17T06:15:12;26.95;;;22.02;;
26038;SDS011;13815;52.374;4.882;2022-07-17T06:17:38;28.80;;;22.50;;
26038;SDS011;13815;52.374;4.882;2022-07-17T06:20:04;30.20;;;23.20;;
26038;SDS011;13815;52.374;4.882;2022-07-17T06:22:29;27.17;;;22.15;;
26038;SDS011;13815;52.374;4.882;2022-07-17T06:24:55;28.13;;;22.25;;
26038;SDS011;13815;52.374;4.882;2022-07-17T06:27:20;28.77;;;22.50;;
26038;SDS011;13815;52.374;4.882;2022-07-17T06:29:46;28.45;;;22.48;;
26038;SDS011;13815;52.374;4.882;2022-07-17T06:32:14;28.17;;;22.52;;
26038;SDS011;13815;52.374;4.882;2022-07-17T06:34:40;28.23;;;22.48;;
26038;SDS011;13815;52.374;4.882;2022-07-17T06:37:05;28.42;;;22.67;;
26038;SDS011;13815;52.374;4.882;2022-07-17T06:39:31;29.88;;;22.75;;
26038;SDS011;13815;52.374;4.882;2022-07-17T06:41:56;28.60;;;22.77;;
26038;SDS011;13815;52.374;4.882;2022-07-17T06:44:21;29.88;;;22.60;;
26038;SDS011;13815;52.374;4.882;2022-07-17T06:46:47;29.48;;;22.90;;
26038;SDS011;13815;52.374;4.882;2022-07-17T06:49:12;29.02;;;22.52;;
26038;SDS011;13815;52.374;4.882;2022-07-17T06:51:38;30.00;;;23.00;;
26038;SDS011;13815;52.374;4.882;2022-07-17T06:54:03;29.10;;;22.30;;
26038;SDS011;13815;52.374;4.882;2022-07-17T06:56:29;27.85;;;21.40;;
26038;SDS011;13815;52.374;4.882;2022-07-17T06:58:55;29.95;;;22.55;;
26038;SDS011;13815;52.374;4.882;2022-07-17T07:01:20;29.08;;;22.23;;
26038;SDS011;13815;52.374;4.882;2022-07-17T07:03:46;28.92;;;22.10;;
26038;SDS011;13815;52.374;4.882;2022-07-17T07:06:11;29.05;;;22.42;;
26038;SDS011;13815;52.374;4.882;2022-07-17T07:08:36;29.23;;;23.00;;
26038;SDS011;13815;52.374;4.882;2022-07-17T07:11:02;29.30;;;22.38;;
26038;SDS011;13815;52.374;4.882;2022-07-17T07:13:28;31.25;;;22.90;;
26038;SDS011;13815;52.374;4.882;2022-07-17T07:15:53;30.40;;;22.58;;
26038;SDS011;13815;52.374;4.882;2022-07-17T07:18:22;29.25;;;22.65;;
26038;SDS011;13815;52.374;4.882;2022-07-17T07:20:50;29.65;;;22.60;;
26038;SDS011;13815;52.374;4.882;2022-07-17T07:23:16;27.05;;;21.80;;
26038;SDS011;13815;52.374;4.882;2022-07-17T07:25:41;28.83;;;22.55;;
26038;SDS011;13815;52.374;4.882;2022-07-17T07:28:09;29.88;;;22.40;;
26038;SDS011;13815;52.374;4.882;2022-07-17T07:30:34;27.85;;;22.17;;
26038;SDS011;13815;52.374;4.882;2022-07-17T07:33:00;28.38;;;22.10;;
26038;SDS011;13815;52.374;4.882;2022-07-17T07:35:25;30.58;;;22.58;;
26038;SDS011;13815;52.374;4.882;2022-07-17T07:37:51;28.35;;;21.88;;
26038;SDS011;13815;52.374;4.882;2022-07-17T07:40:17;29.33;;;22.20;;
26038;SDS011;13815;52.374;4.882;2022-07-17T07:42:42;31.17;;;22.70;;
26038;SDS011;13815;52.374;4.882;2022-07-17T07:45:07;27.90;;;21.77;;
26038;SDS011;13815;52.374;4.882;2022-07-17T07:47:39;27.15;;;22.05;;
26038;SDS011;13815;52.374;4.882;2022-07-17T07:50:06;29.67;;;23.10;;
26038;SDS011;13815;52.374;4.882;2022-07-17T07:52:36;29.50;;;24.50;;
26038;SDS011;13815;52.374;4.882;2022-07-17T07:55:01;31.25;;;25.40;;
26038;SDS011;13815;52.374;4.882;2022-07-17T07:57:28;30.50;;;25.67;;
26038;SDS011;13815;52.374;4.882;2022-07-17T07:59:54;30.92;;;24.48;;
26038;SDS011;13815;52.374;4.882;2022-07-17T08:02:20;31.25;;;23.48;;
26038;SDS011;13815;52.374;4.882;2022-07-17T08:04:46;30.85;;;23.38;;
26038;SDS011;13815;52.374;4.882;2022-07-17T08:07:11;32.70;;;25.15;;
26038;SDS011;13815;52.374;4.882;2022-07-17T08:09:38;29.63;;;23.17;;
26038;SDS011;13815;52.374;4.882;2022-07-17T08:12:03;29.90;;;23.48;;
26038;SDS011;13815;52.374;4.882;2022-07-17T08:14:28;30.95;;;23.50;;
26038;SDS011;13815;52.374;4.882;2022-07-17T08:16:54;30.85;;;23.77;;
26038;SDS011;13815;52.374;4.882;2022-07-17T08:19:19;29.35;;;23.10;;
26038;SDS011;13815;52.374;4.882;2022-07-17T08:21:45;30.27;;;23.40;;
26038;SDS011;13815;52.374;4.882;2022-07-17T08:24:10;31.05;;;24.35;;
26038;SDS011;13815;52.374;4.882;2022-07-17T08:26:35;30.10;;;23.65;;
26038;SDS011;13815;52.374;4.882;2022-07-17T08:29:01;29.60;;;23.48;;
26038;SDS011;13815;52.374;4.882;2022-07-17T08:31:26;29.88;;;23.73;;
26038;SDS011;13815;52.374;4.882;2022-07-17T08:33:52;29.52;;;23.63;;
26038;SDS011;13815;52.374;4.882;2022-07-17T08:36:17;30.67;;;24.05;;
26038;SDS011;13815;52.374;4.882;2022-07-17T08:38:42;30.63;;;24.15;;
26038;SDS011;13815;52.374;4.882;2022-07-17T08:41:08;30.02;;;24.02;;
26038;SDS011;13815;52.374;4.882;2022-07-17T08:43:35;31.50;;;24.20;;
26038;SDS011;13815;52.374;4.882;2022-07-17T08:46:01;29.60;;;23.17;;
26038;SDS011;13815;52.374;4.882;2022-07-17T08:48:27;29.85;;;24.13;;
26038;SDS011;13815;52.374;4.882;2022-07-17T08:50:52;30.80;;;24.55;;
26038;SDS011;13815;52.374;4.882;2022-07-17T08:53:20;29.58;;;23.35;;
26038;SDS011;13815;52.374;4.882;2022-07-17T08:55:46;30.38;;;24.02;;
26038;SDS011;13815;52.374;4.882;2022-07-17T08:58:16;31.70;;;24.67;;
26038;SDS011;13815;52.374;4.882;2022-07-17T09:00:42;28.58;;;21.90;;
26038;SDS011;13815;52.374;4.882;2022-07-17T09:03:08;29.70;;;22.90;;
26038;SDS011;13815;52.374;4.882;2022-07-17T09:05:38;29.40;;;23.05;;
26038;SDS011;13815;52.374;4.882;2022-07-17T09:08:05;30.60;;;23.98;;
26038;SDS011;13815;52.374;4.882;2022-07-17T09:10:36;33.15;;;24.70;;
26038;SDS011;13815;52.374;4.882;2022-07-17T09:13:13;30.63;;;24.02;;
26038;SDS011;13815;52.374;4.882;2022-07-17T09:15:53;30.55;;;23.90;;
26038;SDS011;13815;52.374;4.882;2022-07-17T09:18:23;31.60;;;24.00;;
26038;SDS011;13815;52.374;4.882;2022-07-17T09:20:53;30.58;;;23.33;;
26038;SDS011;13815;52.374;4.882;2022-07-17T09:23:20;30.48;;;23.38;;
26038;SDS011;13815;52.374;4.882;2022-07-17T09:25:48;31.90;;;24.52;;
26038;SDS011;13815;52.374;4.882;2022-07-17T09:28:15;31.70;;;24.27;;
26038;SDS011;13815;52.374;4.882;2022-07-17T09:30:45;30.45;;;23.52;;
26038;SDS011;13815;52.374;4.882;2022-07-17T09:33:18;33.80;;;24.55;;
26038;SDS011;13815;52.374;4.882;2022-07-17T09:36:05;30.83;;;23.77;;
26038;SDS011;13815;52.374;4.882;2022-07-17T09:46:09;32.63;;;24.30;;
26038;SDS011;13815;52.374;4.882;2022-07-17T09:48:39;38.45;;;24.55;;
26038;SDS011;13815;52.374;4.882;2022-07-17T09:51:09;33.67;;;23.67;;
26038;SDS011;13815;52.374;4.882;2022-07-17T09:53:35;31.80;;;22.95;;
26038;SDS011;13815;52.374;4.882;2022-07-17T09:56:01;32.42;;;23.60;;
26038;SDS011;13815;52.374;4.882;2022-07-17T09:58:27;30.75;;;23.13;;
26038;SDS011;13815;52.374;4.882;2022-07-17T10:00:54;32.60;;;23.83;;
26038;SDS011;13815;52.374;4.882;2022-07-17T10:03:20;31.52;;;23.77;;
26038;SDS011;13815;52.374;4.882;2022-07-17T10:05:45;32.65;;;23.65;;
26038;SDS011;13815;52.374;4.882;2022-07-17T10:08:10;30.92;;;23.58;;
26038;SDS011;13815;52.374;4.882;2022-07-17T10:10:37;34.03;;;24.50;;
26038;SDS011;13815;52.374;4.882;2022-07-17T10:13:02;30.55;;;24.00;;
26038;SDS011;13815;52.374;4.882;2022-07-17T10:15:28;31.95;;;23.80;;
26038;SDS011;13815;52.374;4.882;2022-07-17T10:18:06;32.20;;;24.17;;
26038;SDS011;13815;52.374;4.882;2022-07-17T10:20:31;30.60;;;23.50;;
26038;SDS011;13815;52.374;4.882;2022-07-17T10:22:57;30.83;;;23.55;;
26038;SDS011;13815;52.374;4.882;2022-07-17T10:25:22;30.33;;;23.38;;
26038;SDS011;13815;52.374;4.882;2022-07-17T10:27:48;32.58;;;23.83;;
26038;SDS011;13815;52.374;4.882;2022-07-17T10:30:19;31.30;;;23.77;;
26038;SDS011;13815;52.374;4.882;2022-07-17T10:33:19;30.75;;;23.27;;
26038;SDS011;13815;52.374;4.882;2022-07-17T10:35:42;31.95;;;23.95;;
26038;SDS011;13815;52.374;4.882;2022-07-17T10:38:12;38.90;;;25.27;;
26038;SDS011;13815;52.374;4.882;2022-07-17T10:40:39;32.10;;;23.17;;
26038;SDS011;13815;52.374;4.882;2022-07-17T10:43:06;34.97;;;25.45;;
26038;SDS011;13815;52.374;4.882;2022-07-17T10:45:37;35.50;;;24.75;;
26038;SDS011;13815;52.374;4.882;2022-07-17T10:48:06;31.50;;;23.70;;
26038;SDS011;13815;52.374;4.882;2022-07-17T10:53:04;31.50;;;24.00;;
26038;SDS011;13815;52.374;4.882;2022-07-17T10:55:36;30.55;;;23.77;;
26038;SDS011;13815;52.374;4.882;2022-07-17T10:58:03;33.15;;;24.02;;
26038;SDS011;13815;52.374;4.882;2022-07-17T11:00:29;31.20;;;23.38;;
26038;SDS011;13815;52.374;4.882;2022-07-17T11:02:55;30.67;;;23.05;;
26038;SDS011;13815;52.374;4.882;2022-07-17T11:05:20;29.92;;;22.95;;
26038;SDS011;13815;52.374;4.882;2022-07-17T11:07:50;29.95;;;23.30;;
26038;SDS011;13815;52.374;4.882;2022-07-17T11:10:15;33.35;;;24.20;;
26038;SDS011;13815;52.374;4.882;2022-07-17T11:12:41;32.75;;;24.30;;
26038;SDS011;13815;52.374;4.882;2022-07-17T11:15:07;30.60;;;24.05;;
26038;SDS011;13815;52.374;4.882;2022-07-17T11:17:32;36.58;;;23.70;;
26038;SDS011;13815;52.374;4.882;2022-07-17T11:19:58;33.88;;;24.65;;
26038;SDS011;13815;52.374;4.882;2022-07-17T11:22:24;29.85;;;23.25;;
26038;SDS011;13815;52.374;4.882;2022-07-17T11:24:50;36.67;;;24.00;;
26038;SDS011;13815;52.374;4.882;2022-07-17T11:27:23;32.67;;;24.27;;
26038;SDS011;13815;52.374;4.882;2022-07-17T11:29:50;35.08;;;24.50;;
26038;SDS011;13815;52.374;4.882;2022-07-17T11:32:16;35.13;;;24.52;;
26038;SDS011;13815;52.374;4.882;2022-07-17T11:34:42;31.98;;;24.17;;
26038;SDS011;13815;52.374;4.882;2022-07-17T11:37:07;36.60;;;24.90;;
26038;SDS011;13815;52.374;4.882;2022-07-17T11:42:29;43.78;;;25.65;;
26038;SDS011;13815;52.374;4.882;2022-07-17T11:44:55;31.80;;;24.70;;
26038;SDS011;13815;52.374;4.882;2022-07-17T11:47:22;30.33;;;23.95;;
26038;SDS011;13815;52.374;4.882;2022-07-17T11:49:49;35.08;;;24.48;;
26038;SDS011;13815;52.374;4.882;2022-07-17T11:52:19;31.38;;;24.17;;
26038;SDS011;13815;52.374;4.882;2022-07-17T11:54:46;32.28;;;23.85;;
26038;SDS011;13815;52.374;4.882;2022-07-17T11:57:16;34.22;;;24.38;;
26038;SDS011;13815;52.374;4.882;2022-07-17T11:59:42;31.50;;;24.23;;
26038;SDS011;13815;52.374;4.882;2022-07-17T12:02:08;30.98;;;24.17;;
26038;SDS011;13815;52.374;4.882;2022-07-17T12:04:35;31.95;;;24.60;;
26038;SDS011;13815;52.374;4.882;2022-07-17T12:07:01;34.63;;;24.50;;
26038;SDS011;13815;52.374;4.882;2022-07-17T12:09:28;34.80;;;23.83;;
26038;SDS011;13815;52.374;4.882;2022-07-17T12:12:00;30.65;;;23.13;;
26038;SDS011;13815;52.374;4.882;2022-07-17T12:14:25;31.35;;;24.08;;
26038;SDS011;13815;52.374;4.882;2022-07-17T12:16:51;33.05;;;23.73;;
26038;SDS011;13815;52.374;4.882;2022-07-17T12:19:17;30.50;;;23.58;;
26038;SDS011;13815;52.374;4.882;2022-07-17T12:22:03;36.72;;;24.20;;
26038;SDS011;13815;52.374;4.882;2022-07-17T12:24:31;33.78;;;24.15;;
26038;SDS011;13815;52.374;4.882;2022-07-17T12:27:17;33.08;;;23.60;;
26038;SDS011;13815;52.374;4.882;2022-07-17T12:29:43;30.85;;;23.60;;
26038;SDS011;13815;52.374;4.882;2022-07-17T12:32:16;33.60;;;23.45;;
26038;SDS011;13815;52.374;4.882;2022-07-17T12:34:44;29.35;;;23.08;;
26038;SDS011;13815;52.374;4.882;2022-07-17T12:37:10;34.78;;;24.67;;
26038;SDS011;13815;52.374;4.882;2022-07-17T12:39:40;30.42;;;23.70;;
26038;SDS011;13815;52.374;4.882;2022-07-17T12:42:06;29.63;;;23.30;;
26038;SDS011;13815;52.374;4.882;2022-07-17T12:44:32;34.22;;;24.20;;
26038;SDS011;13815;52.374;4.882;2022-07-17T12:46:58;33.72;;;24.08;;
26038;SDS011;13815;52.374;4.882;2022-07-17T12:49:23;31.83;;;24.48;;
26038;SDS011;13815;52.374;4.882;2022-07-17T12:51:50;30.25;;;24.15;;
26038;SDS011;13815;52.374;4.882;2022-07-17T12:54:15;30.23;;;24.08;;
26038;SDS011;13815;52.374;4.882;2022-07-17T12:56:41;32.92;;;23.88;;
26038;SDS011;13815;52.374;4.882;2022-07-17T12:59:06;34.50;;;23.65;;
26038;SDS011;13815;52.374;4.882;2022-07-17T13:01:32;30.05;;;23.38;;
26038;SDS011;13815;52.374;4.882;2022-07-17T13:03:58;32.28;;;23.30;;
26038;SDS011;13815;52.374;4.882;2022-07-17T13:06:23;35.85;;;23.50;;
26038;SDS011;13815;52.374;4.882;2022-07-17T13:08:49;30.60;;;23.13;;
26038;SDS011;13815;52.374;4.882;2022-07-17T13:11:14;33.72;;;23.35;;
26038;SDS011;13815;52.374;4.882;2022-07-17T13:13:39;39.67;;;24.30;;
26038;SDS011;13815;52.374;4.882;2022-07-17T13:16:05;30.85;;;23.27;;
26038;SDS011;13815;52.374;4.882;2022-07-17T13:18:30;30.58;;;23.08;;
26038;SDS011;13815;52.374;4.882;2022-07-17T13:20:56;34.45;;;24.00;;
26038;SDS011;13815;52.374;4.882;2022-07-17T13:23:21;34.50;;;24.20;;
26038;SDS011;13815;52.374;4.882;2022-07-17T13:25:47;35.60;;;24.38;;
26038;SDS011;13815;52.374;4.882;2022-07-17T13:28:12;33.75;;;23.42;;
26038;SDS011;13815;52.374;4.882;2022-07-17T13:30:37;31.23;;;24.15;;
26038;SDS011;13815;52.374;4.882;2022-07-17T13:33:03;33.30;;;24.42;;
26038;SDS011;13815;52.374;4.882;2022-07-17T13:35:28;29.88;;;23.65;;
26038;SDS011;13815;52.374;4.882;2022-07-17T13:37:54;30.80;;;23.88;;
26038;SDS011;13815;52.374;4.882;2022-07-17T13:40:21;42.72;;;25.40;;
26038;SDS011;13815;52.374;4.882;2022-07-17T13:42:49;30.25;;;23.63;;
26038;SDS011;13815;52.374;4.882;2022-07-17T13:45:14;31.52;;;24.25;;
26038;SDS011;13815;52.374;4.882;2022-07-17T13:47:40;35.08;;;24.83;;
26038;SDS011;13815;52.374;4.882;2022-07-17T13:50:05;31.65;;;23.77;;
26038;SDS011;13815;52.374;4.882;2022-07-17T13:52:31;31.80;;;23.48;;
26038;SDS011;13815;52.374;4.882;2022-07-17T13:54:57;35.30;;;24.15;;
26038;SDS011;13815;52.374;4.882;2022-07-17T13:57:23;31.70;;;23.80;;
26038;SDS011;13815;52.374;4.882;2022-07-17T13:59:48;30.52;;;23.65;;
26038;SDS011;13815;52.374;4.882;2022-07-17T14:02:14;35.38;;;23.80;;
26038;SDS011;13815;52.374;4.882;2022-07-17T14:04:40;29.80;;;22.65;;
26038;SDS011;13815;52.374;4.882;2022-07-17T14:07:06;33.45;;;23.27;;
26038;SDS011;13815;52.374;4.882;2022-07-17T14:09:32;32.80;;;23.35;;
26038;SDS011;13815;52.374;4.882;2022-07-17T14:11:57;30.60;;;23.35;;
26038;SDS011;13815;52.374;4.882;2022-07-17T14:14:22;33.03;;;23.42;;
26038;SDS011;13815;52.374;4.882;2022-07-17T14:16:48;35.63;;;24.38;;
26038;SDS011;13815;52.374;4.882;2022-07-17T14:19:13;32.15;;;24.90;;
26038;SDS011;13815;52.374;4.882;2022-07-17T14:21:38;34.92;;;24.17;;
26038;SDS011;13815;52.374;4.882;2022-07-17T14:24:04;35.58;;;25.00;;
26038;SDS011;13815;52.374;4.882;2022-07-17T14:26:30;34.65;;;25.00;;
26038;SDS011;13815;52.374;4.882;2022-07-17T14:28:56;36.67;;;25.05;;